createdAt,value
2022-11-20T00:00:58.635Z,77.26
2022-11-20T00:03:26.471Z,75.67
2022-11-20T00:05:54.306Z,75.96
2022-11-20T00:08:22.141Z,76.07
2022-11-20T00:10:50.026Z,76.57
2022-11-20T00:13:17.860Z,77.11
2022-11-20T00:15:45.722Z,75.70
2022-11-20T00:18:15.053Z,76.48
2022-11-20T00:20:42.924Z,76.68
2022-11-20T00:23:10.781Z,76.47
2022-11-20T00:25:38.595Z,75.99
2022-11-20T00:28:06.446Z,75.83
2022-11-20T00:30:34.266Z,75.46
2022-11-20T00:33:02.139Z,76.30
2022-11-20T00:35:31.701Z,75.13
2022-11-20T00:37:59.550Z,75.62
2022-11-20T00:40:27.390Z,75.58
2022-11-20T00:42:55.287Z,76.51
2022-11-20T00:45:23.240Z,76.11
2022-11-20T00:47:51.125Z,76.27
2022-11-20T00:50:19.206Z,76.47
2022-11-20T00:52:48.381Z,75.60
2022-11-20T00:55:16.349Z,75.38
2022-11-20T00:57:44.197Z,74.85
2022-11-20T01:00:12.650Z,74.67
2022-11-20T01:02:40.512Z,75.81
2022-11-20T01:05:08.978Z,75.01
2022-11-20T01:07:36.903Z,76.04
2022-11-20T01:10:07.182Z,75.02
2022-11-20T01:12:35.033Z,74.55
2022-11-20T01:15:02.872Z,73.39
2022-11-20T01:17:30.763Z,75.10
2022-11-20T01:19:58.604Z,75.53
2022-11-20T01:22:26.515Z,75.88
2022-11-20T01:24:56.859Z,75.25
2022-11-20T01:27:26.049Z,76.59
2022-11-20T01:29:59.763Z,75.13
2022-11-20T01:32:28.838Z,75.10
2022-11-20T01:34:56.702Z,74.39
2022-11-20T01:37:24.577Z,74.31
2022-11-20T01:39:52.503Z,74.29
2022-11-20T01:42:43.061Z,74.53
2022-11-20T01:45:56.829Z,74.95
2022-11-20T01:48:27.355Z,75.15
2022-11-20T01:50:55.916Z,74.28
2022-11-20T01:53:27.929Z,74.48
2022-11-20T01:55:58.868Z,73.40
2022-11-20T01:58:32.055Z,74.84
2022-11-20T02:01:01.271Z,75.65
2022-11-20T02:03:30.121Z,73.29
2022-11-20T02:06:04.043Z,74.61
2022-11-20T02:08:33.228Z,74.71
2022-11-20T02:11:01.085Z,74.19
2022-11-20T02:13:47.016Z,74.09
2022-11-20T02:16:20.800Z,74.02
2022-11-20T02:18:49.445Z,73.94
2022-11-20T02:21:26.988Z,74.24
2022-11-20T02:24:02.084Z,75.91
2022-11-20T02:26:32.158Z,75.10
2022-11-20T02:29:01.092Z,75.03
2022-11-20T02:31:29.033Z,74.96
2022-11-20T02:33:58.333Z,74.62
2022-11-20T02:36:29.071Z,74.19
2022-11-20T02:38:57.475Z,74.48
2022-11-20T02:41:34.706Z,74.70
2022-11-20T02:44:03.002Z,74.20
2022-11-20T02:46:31.277Z,73.20
2022-11-20T02:48:59.193Z,74.43
2022-11-20T02:51:27.116Z,74.62
2022-11-20T02:54:01.310Z,73.11
2022-11-20T02:56:29.390Z,74.74
2022-11-20T02:58:58.699Z,74.51
2022-11-20T03:01:26.619Z,74.24
2022-11-20T03:03:55.754Z,72.87
2022-11-20T03:06:24.104Z,75.01
2022-11-20T03:08:51.954Z,74.41
2022-11-20T03:11:19.911Z,73.25
2022-11-20T03:13:47.808Z,73.56
2022-11-20T03:16:19.239Z,74.11
2022-11-20T03:18:47.480Z,73.51
2022-11-20T03:21:16.548Z,72.33
2022-11-20T03:23:44.499Z,72.23
2022-11-20T03:26:14.729Z,73.78
2022-11-20T03:28:43.051Z,73.67
2022-11-20T03:31:11.999Z,73.56
2022-11-20T03:33:42.031Z,74.07
2022-11-20T03:36:12.698Z,73.05
2022-11-20T03:38:40.908Z,72.59
2022-11-20T03:41:11.975Z,74.62
2022-11-20T03:43:40.473Z,73.78
2022-11-20T03:46:08.811Z,73.29
2022-11-20T03:48:36.756Z,72.51
2022-11-20T03:51:16.836Z,73.79
2022-11-20T03:53:46.795Z,73.43
2022-11-20T03:56:15.957Z,73.68
2022-11-20T03:58:44.642Z,72.72
2022-11-20T04:01:14.892Z,72.80
2022-11-20T04:03:44.428Z,72.91
2022-11-20T04:06:17.109Z,73.83
2022-11-20T04:08:47.563Z,74.35
2022-11-20T04:11:20.681Z,73.53
2022-11-20T04:13:50.769Z,74.99
2022-11-20T04:16:19.202Z,75.11
2022-11-20T04:18:47.317Z,73.79
2022-11-20T04:21:16.518Z,73.68
2022-11-20T04:23:44.381Z,73.52
2022-11-20T04:26:13.936Z,73.36
2022-11-20T04:28:41.934Z,73.50
2022-11-20T04:31:12.079Z,72.78
2022-11-20T04:33:40.428Z,73.03
2022-11-20T04:36:12.335Z,71.99
2022-11-20T04:38:41.885Z,73.87
2022-11-20T04:41:11.960Z,72.58
2022-11-20T04:43:39.857Z,72.94
2022-11-20T04:46:07.769Z,72.11
2022-11-20T04:48:36.991Z,72.20
2022-11-20T04:51:05.957Z,73.36
2022-11-20T04:53:34.037Z,73.56
2022-11-20T04:56:04.067Z,72.95
2022-11-20T04:58:31.998Z,72.90
2022-11-20T05:01:05.035Z,72.60
2022-11-20T05:03:32.936Z,74.19
2022-11-20T05:06:02.601Z,74.77
2022-11-20T05:08:30.949Z,73.11
2022-11-20T05:11:03.932Z,72.85
2022-11-20T05:13:32.231Z,72.46
2022-11-20T05:16:04.525Z,73.04
2022-11-20T05:18:32.679Z,73.67
2022-11-20T05:21:00.890Z,72.38
2022-11-20T05:23:31.236Z,73.05
2022-11-20T05:25:59.971Z,72.07
2022-11-20T05:28:30.929Z,73.25
2022-11-20T05:31:06.386Z,72.28
2022-11-20T05:33:35.038Z,72.08
2022-11-20T05:36:03.161Z,73.24
2022-11-20T05:38:31.194Z,73.08
2022-11-20T05:41:06.125Z,72.16
2022-11-20T05:43:36.550Z,72.04
2022-11-20T05:46:04.465Z,72.41
2022-11-20T05:48:33.009Z,72.29
2022-11-20T05:51:01.909Z,73.17
2022-11-20T05:53:29.952Z,73.51
2022-11-20T05:56:01.487Z,72.45
2022-11-20T05:58:29.943Z,73.25
2022-11-20T06:01:06.382Z,72.97
2022-11-20T06:03:34.283Z,72.26
2022-11-20T06:06:02.247Z,72.45
2022-11-20T06:08:30.580Z,72.96
2022-11-20T06:10:58.450Z,71.93
2022-11-20T06:13:27.141Z,73.04
2022-11-20T06:15:55.250Z,73.21
2022-11-20T06:18:24.524Z,73.28
2022-11-20T06:21:01.942Z,73.42
2022-11-20T06:23:31.188Z,73.03
2022-11-20T06:25:59.506Z,72.43
2022-11-20T06:28:27.354Z,73.10
2022-11-20T06:30:55.178Z,73.00
2022-11-20T06:33:24.401Z,72.64
2022-11-20T06:35:56.877Z,71.79
2022-11-20T06:38:28.083Z,70.46
2022-11-20T06:40:56.593Z,72.17
2022-11-20T06:43:25.213Z,70.43
2022-11-20T06:45:55.092Z,70.93
2022-11-20T06:48:24.901Z,70.10
2022-11-20T06:50:52.708Z,70.24
2022-11-20T06:53:20.839Z,71.32
2022-11-20T06:55:49.632Z,71.57
2022-11-20T06:58:18.307Z,71.73
2022-11-20T07:00:46.400Z,71.72
2022-11-20T07:03:14.845Z,71.25
2022-11-20T07:05:44.731Z,69.85
2022-11-20T07:08:12.629Z,71.17
2022-11-20T07:10:40.486Z,71.48
2022-11-20T07:13:08.850Z,71.77
2022-11-20T07:15:36.999Z,70.69
2022-11-20T07:18:05.057Z,71.01
2022-11-20T07:20:32.925Z,71.21
2022-11-20T07:23:02.205Z,71.09
2022-11-20T07:25:31.454Z,70.23
2022-11-20T07:27:59.827Z,70.00
2022-11-20T07:30:29.717Z,70.67
2022-11-20T07:32:58.510Z,71.53
2022-11-20T07:35:26.873Z,70.97
2022-11-20T07:37:54.810Z,71.31
2022-11-20T07:40:24.053Z,71.50
2022-11-20T07:42:52.564Z,71.24
2022-11-20T07:45:21.067Z,70.88
2022-11-20T07:47:49.083Z,71.59
2022-11-20T07:50:17.480Z,69.67
2022-11-20T07:52:45.675Z,70.46
2022-11-20T07:55:13.617Z,70.05
2022-11-20T07:57:43.029Z,70.04
2022-11-20T08:00:13.131Z,69.82
2022-11-20T08:02:41.231Z,68.89
2022-11-20T08:05:10.313Z,69.19
2022-11-20T08:07:39.793Z,69.05
2022-11-20T08:10:08.893Z,68.70
2022-11-20T08:12:54.384Z,69.94
2022-11-20T08:15:24.040Z,69.90
2022-11-20T08:18:08.591Z,69.62
2022-11-20T08:20:40.768Z,69.35
2022-11-20T08:23:09.946Z,68.17
2022-11-20T08:25:39.589Z,69.86
2022-11-20T08:28:19.872Z,69.17
2022-11-20T08:30:51.054Z,67.61
2022-11-20T08:33:19.985Z,69.28
2022-11-20T08:35:47.974Z,70.44
2022-11-20T08:38:15.816Z,68.11
2022-11-20T08:41:03.649Z,69.28
2022-11-20T08:43:31.552Z,70.75
2022-11-20T08:46:00.906Z,70.59
2022-11-20T08:48:28.736Z,69.99
2022-11-20T08:50:59.940Z,69.15
2022-11-20T08:53:27.915Z,68.72
2022-11-20T08:55:55.812Z,70.13
2022-11-20T08:58:23.893Z,68.50
2022-11-20T09:00:51.876Z,70.07
2022-11-20T09:03:21.501Z,69.27
2022-11-20T09:05:49.364Z,69.31
2022-11-20T09:08:17.371Z,68.33
2022-11-20T09:10:45.231Z,68.87
2022-11-20T09:13:13.109Z,66.73
2022-11-20T09:15:40.960Z,68.80
2022-11-20T09:18:08.891Z,68.70
2022-11-20T09:20:38.262Z,69.43
2022-11-20T09:23:06.263Z,69.58
2022-11-20T09:25:34.125Z,69.47
2022-11-20T09:28:02.253Z,68.63
2022-11-20T09:30:30.089Z,69.44
2022-11-20T09:32:57.955Z,68.85
2022-11-20T09:35:25.867Z,67.99
2022-11-20T09:37:55.094Z,69.39
2022-11-20T09:40:25.884Z,69.75
2022-11-20T09:42:59.511Z,68.88
2022-11-20T09:45:40.302Z,69.24
2022-11-20T09:48:37.744Z,68.78
2022-11-20T09:51:18.929Z,68.48
2022-11-20T09:54:02.078Z,67.47
2022-11-20T09:56:30.805Z,69.36
2022-11-20T09:59:04.918Z,68.18
2022-11-20T10:01:36.113Z,67.43
2022-11-20T10:04:06.735Z,68.21
2022-11-20T10:06:36.092Z,68.81
2022-11-20T10:09:16.763Z,67.45
2022-11-20T10:11:51.591Z,66.74
2022-11-20T10:14:32.556Z,66.85
2022-11-20T10:17:10.351Z,68.68
2022-11-20T10:19:53.738Z,67.71
2022-11-20T10:22:30.459Z,67.59
2022-11-20T10:25:08.901Z,67.88
2022-11-20T10:28:11.776Z,67.75
2022-11-20T10:30:44.170Z,67.31
2022-11-20T10:33:17.711Z,67.79
2022-11-20T10:35:51.433Z,69.09
2022-11-20T10:38:23.673Z,68.34
2022-11-20T10:41:18.508Z,67.95
2022-11-20T10:43:46.883Z,67.51
2022-11-20T10:46:19.438Z,67.04
2022-11-20T10:48:48.544Z,66.59
2022-11-20T10:51:31.922Z,67.21
2022-11-20T10:54:06.045Z,67.04
2022-11-20T10:56:42.393Z,67.24
2022-11-20T10:59:33.945Z,65.99
2022-11-20T11:02:03.417Z,66.71
2022-11-20T11:04:38.868Z,64.20
2022-11-20T11:07:13.356Z,65.73
2022-11-20T11:09:45.254Z,65.69
2022-11-20T11:12:14.572Z,66.44
2022-11-20T11:14:47.869Z,64.39
2022-11-20T11:17:30.294Z,63.44
2022-11-20T11:20:08.137Z,64.47
2022-11-20T11:22:45.809Z,66.76
2022-11-20T11:25:23.557Z,66.55
2022-11-20T11:27:56.017Z,64.78
2022-11-20T11:30:25.990Z,66.12
2022-11-20T11:33:05.391Z,65.75
2022-11-20T11:35:33.528Z,65.53
2022-11-20T11:38:08.178Z,66.67
2022-11-20T11:40:39.402Z,65.66
2022-11-20T11:43:36.866Z,65.63
2022-11-20T11:46:14.657Z,66.18
2022-11-20T11:48:44.826Z,67.36
2022-11-20T11:51:22.343Z,67.90
2022-11-20T11:53:50.834Z,66.80
2022-11-20T11:56:18.830Z,68.68
2022-11-20T11:58:50.522Z,66.99
2022-11-20T12:01:33.845Z,68.88
2022-11-20T12:04:08.147Z,67.82
2022-11-20T12:06:41.241Z,69.23
2022-11-20T12:09:13.011Z,68.78
2022-11-20T12:11:46.266Z,68.96
2022-11-20T12:14:16.612Z,69.09
2022-11-20T12:16:44.525Z,69.66
2022-11-20T12:19:14.464Z,69.27
2022-11-20T12:21:59.970Z,68.40
2022-11-20T12:24:42.063Z,68.97
2022-11-20T12:27:34.957Z,67.94
2022-11-20T12:30:10.426Z,68.46
2022-11-20T12:33:14.676Z,66.88
2022-11-20T12:36:06.093Z,66.07
2022-11-20T12:38:53.997Z,66.74
2022-11-20T12:41:51.528Z,67.87
2022-11-20T12:44:53.446Z,66.58
2022-11-20T12:47:30.872Z,65.64
2022-11-20T12:50:12.732Z,68.50
2022-11-20T12:52:49.409Z,67.62
2022-11-20T12:55:25.832Z,67.67
2022-11-20T12:57:59.164Z,67.20
2022-11-20T13:00:27.583Z,67.24
2022-11-20T13:03:28.769Z,67.70
2022-11-20T13:06:06.689Z,68.11
2022-11-20T13:08:37.506Z,67.28
2022-11-20T13:11:15.210Z,67.02
2022-11-20T13:13:54.899Z,66.88
2022-11-20T13:16:33.867Z,67.95
2022-11-20T13:19:06.631Z,68.08
2022-11-20T13:21:40.611Z,68.50
2022-11-20T13:24:09.465Z,69.84
2022-11-20T13:26:37.340Z,68.37
2022-11-20T13:29:11.499Z,68.51
2022-11-20T13:31:45.060Z,68.40
2022-11-20T13:34:25.542Z,68.47
2022-11-20T13:36:55.209Z,68.74
2022-11-20T13:39:27.820Z,68.01
2022-11-20T13:41:58.069Z,68.86
2022-11-20T13:44:29.730Z,67.07
2022-11-20T13:46:57.741Z,68.49
2022-11-20T13:49:31.745Z,68.23
2022-11-20T13:52:20.125Z,68.62
2022-11-20T13:55:08.994Z,68.37
2022-11-20T13:57:57.438Z,68.39
2022-11-20T14:00:27.183Z,67.97
2022-11-20T14:03:10.900Z,68.09
2022-11-20T14:05:49.453Z,68.20
2022-11-20T14:08:27.388Z,68.92
2022-11-20T14:11:05.378Z,69.45
2022-11-20T14:13:33.535Z,69.19
2022-11-20T14:16:01.577Z,68.58
2022-11-20T14:18:29.974Z,69.36
2022-11-20T14:21:02.527Z,68.90
2022-11-20T14:23:31.303Z,69.23
2022-11-20T14:25:59.346Z,68.34
2022-11-20T14:28:29.743Z,68.97
2022-11-20T14:30:59.307Z,68.61
2022-11-20T14:33:29.087Z,67.63
2022-11-20T14:35:59.979Z,68.36
2022-11-20T14:38:30.245Z,69.39
2022-11-20T14:41:08.381Z,68.05
2022-11-20T14:43:38.546Z,68.95
2022-11-20T14:46:09.254Z,68.52
2022-11-20T14:48:41.959Z,68.79
2022-11-20T14:51:13.115Z,67.86
2022-11-20T14:53:40.966Z,69.36
2022-11-20T14:56:10.834Z,68.44
2022-11-20T14:58:38.685Z,67.74
2022-11-20T15:01:08.094Z,68.16
2022-11-20T15:03:38.061Z,67.67
2022-11-20T15:06:07.253Z,67.88
2022-11-20T15:08:37.115Z,66.57
2022-11-20T15:11:05.337Z,67.42
2022-11-20T15:13:34.990Z,67.11
2022-11-20T15:16:04.117Z,67.89
2022-11-20T15:18:34.433Z,67.34
2022-11-20T15:21:05.625Z,66.94
2022-11-20T15:23:33.715Z,66.74
2022-11-20T15:26:03.024Z,67.12
2022-11-20T15:28:33.584Z,67.82
2022-11-20T15:31:03.262Z,67.65
2022-11-20T15:33:31.535Z,66.76
2022-11-20T15:35:59.616Z,67.87
2022-11-20T15:38:27.521Z,69.44
2022-11-20T15:40:55.349Z,68.13
2022-11-20T15:43:24.603Z,68.23
2022-11-20T15:45:56.438Z,68.40
2022-11-20T15:48:28.162Z,67.77
2022-11-20T15:51:00.156Z,68.31
2022-11-20T15:53:28.196Z,68.36
2022-11-20T15:55:56.193Z,67.85
2022-11-20T15:58:25.650Z,68.07
2022-11-20T16:00:53.470Z,67.66
2022-11-20T16:03:21.755Z,68.05
2022-11-20T16:05:49.618Z,68.21
2022-11-20T16:08:17.486Z,68.00
2022-11-20T16:10:45.379Z,69.33
2022-11-20T16:13:32.872Z,68.07
2022-11-20T16:16:05.996Z,68.30
2022-11-20T16:18:33.885Z,68.40
2022-11-20T16:21:02.030Z,68.47
2022-11-20T16:23:30.455Z,68.71
2022-11-20T16:25:58.373Z,69.15
2022-11-20T16:28:26.239Z,67.89
2022-11-20T16:30:54.138Z,68.68
2022-11-20T16:33:23.363Z,67.51
2022-11-20T16:35:51.255Z,67.83
2022-11-20T16:38:19.152Z,68.61
2022-11-20T16:40:46.992Z,68.38
2022-11-20T16:43:16.126Z,69.11
2022-11-20T16:45:45.318Z,67.90
2022-11-20T16:48:17.486Z,68.78
2022-11-20T16:50:52.161Z,68.96
2022-11-20T16:53:21.559Z,69.22
2022-11-20T16:55:49.742Z,68.50
2022-11-20T16:58:17.614Z,68.94
2022-11-20T17:00:51.187Z,68.86
2022-11-20T17:03:20.882Z,68.81
2022-11-20T17:05:50.221Z,68.02
2022-11-20T17:08:18.043Z,68.03
2022-11-20T17:10:45.872Z,68.42
2022-11-20T17:13:13.702Z,68.33
2022-11-20T17:15:41.558Z,67.75
2022-11-20T17:18:09.385Z,67.74
2022-11-20T17:20:37.289Z,68.58
2022-11-20T17:23:06.538Z,68.14
2022-11-20T17:25:35.207Z,68.70
2022-11-20T17:28:03.172Z,68.44
2022-11-20T17:30:31.447Z,68.00
2022-11-20T17:32:59.276Z,68.89
2022-11-20T17:35:27.424Z,68.31
2022-11-20T17:37:55.355Z,68.54
2022-11-20T17:40:27.663Z,67.21
2022-11-20T17:42:56.245Z,67.07
2022-11-20T17:45:24.139Z,67.66
2022-11-20T17:47:52.135Z,67.86
2022-11-20T17:50:20.057Z,68.05
2022-11-20T17:52:47.990Z,67.58
2022-11-20T17:55:16.124Z,67.06
2022-11-20T17:57:53.378Z,67.46
2022-11-20T18:00:22.277Z,66.92
2022-11-20T18:02:50.579Z,65.13
2022-11-20T18:05:18.547Z,66.47
2022-11-20T18:07:46.462Z,67.27
2022-11-20T18:10:14.492Z,67.80
2022-11-20T18:12:42.359Z,66.93
2022-11-20T18:15:11.877Z,67.58
2022-11-20T18:17:39.804Z,67.35
2022-11-20T18:22:57.501Z,67.78
2022-11-20T18:25:25.607Z,68.01
2022-11-20T18:27:53.410Z,68.38
2022-11-20T18:30:22.853Z,68.55
2022-11-20T18:32:51.004Z,68.69
2022-11-20T18:35:18.837Z,68.63
2022-11-20T18:37:46.687Z,68.27
2022-11-20T18:40:15.126Z,68.83
2022-11-20T18:43:00.592Z,69.05
2022-11-20T18:45:30.386Z,69.28
2022-11-20T18:47:58.304Z,68.96
2022-11-20T18:50:26.195Z,69.30
2022-11-20T18:52:54.243Z,67.96
2022-11-20T18:55:25.087Z,68.97
2022-11-20T18:57:54.068Z,68.53
2022-11-20T19:00:22.437Z,69.09
2022-11-20T19:02:54.493Z,69.78
2022-11-20T19:05:22.484Z,69.56
2022-11-20T19:07:50.485Z,68.84
2022-11-20T19:10:20.294Z,68.78
2022-11-20T19:12:48.451Z,70.45
2022-11-20T19:15:16.414Z,70.21
2022-11-20T19:17:44.286Z,69.86
2022-11-20T19:20:14.055Z,70.40
2022-11-20T19:22:41.938Z,70.27
2022-11-20T19:25:10.470Z,70.41
2022-11-20T19:27:38.408Z,70.03
2022-11-20T19:30:07.123Z,69.22
2022-11-20T19:32:35.363Z,69.90
2022-11-20T19:35:03.611Z,70.21
2022-11-20T19:37:35.186Z,70.00
2022-11-20T19:40:04.737Z,70.02
2022-11-20T19:42:32.920Z,70.00
2022-11-20T19:45:00.871Z,70.56
2022-11-20T19:47:52.729Z,71.50
2022-11-20T19:50:17.018Z,70.26
2022-11-20T19:52:46.338Z,70.50
2022-11-20T19:55:14.475Z,70.00
2022-11-20T19:57:42.380Z,69.80
2022-11-20T20:00:12.334Z,69.06
2022-11-20T20:02:40.303Z,69.85
2022-11-20T20:05:09.687Z,69.90
2022-11-20T20:07:40.115Z,69.43
2022-11-20T20:10:10.754Z,69.64
2022-11-20T20:12:38.613Z,70.27
2022-11-20T20:15:07.728Z,69.28
2022-11-20T20:17:35.645Z,69.26
2022-11-20T20:20:03.634Z,69.29
2022-11-20T20:22:31.464Z,69.10
2022-11-20T20:24:59.400Z,69.73
2022-11-20T20:27:28.564Z,69.16
2022-11-20T20:29:56.414Z,69.93
2022-11-20T20:32:26.058Z,69.76
2022-11-20T20:34:53.990Z,69.82
2022-11-20T20:37:22.014Z,70.12
2022-11-20T20:39:50.589Z,70.60
2022-11-20T20:42:18.444Z,70.18
2022-11-20T20:45:05.314Z,70.03
2022-11-20T20:47:35.645Z,69.64
2022-11-20T20:50:03.821Z,69.32
2022-11-20T20:52:31.708Z,69.73
2022-11-20T20:54:59.724Z,70.43
2022-11-20T20:57:28.583Z,70.27
2022-11-20T20:59:58.150Z,70.34
2022-11-20T21:02:26.585Z,71.20
2022-11-20T21:04:54.431Z,70.58
2022-11-20T21:07:22.548Z,70.33
2022-11-20T21:09:50.583Z,71.21
2022-11-20T21:12:18.557Z,71.79
2022-11-20T21:14:46.464Z,71.39
2022-11-20T21:17:15.866Z,71.59
2022-11-20T21:19:43.719Z,71.14
2022-11-20T21:22:10.753Z,71.43
2022-11-20T21:24:38.637Z,70.65
2022-11-20T21:27:08.020Z,71.14
2022-11-20T21:29:35.933Z,71.46
2022-11-20T21:32:03.873Z,71.19
2022-11-20T21:34:33.107Z,71.04
2022-11-20T21:37:00.975Z,71.26
2022-11-20T21:39:30.384Z,71.10
2022-11-20T21:41:58.258Z,71.76
2022-11-20T21:44:33.320Z,72.16
2022-11-20T21:47:01.249Z,71.74
2022-11-20T21:49:29.190Z,71.49
2022-11-20T21:51:58.446Z,71.36
2022-11-20T21:54:26.570Z,71.52
2022-11-20T21:56:54.694Z,72.52
2022-11-20T21:59:22.815Z,71.95
2022-11-20T22:01:50.818Z,71.66
2022-11-20T22:04:18.857Z,71.93
2022-11-20T22:06:46.743Z,72.19
2022-11-20T22:09:15.958Z,72.67
2022-11-20T22:11:43.850Z,71.87
2022-11-20T22:14:24.853Z,72.10
2022-11-20T22:16:54.579Z,72.39
2022-11-20T22:19:23.863Z,72.15
2022-11-20T22:21:52.167Z,71.96
2022-11-20T22:24:23.200Z,71.86
2022-11-20T22:26:51.844Z,71.78
2022-11-20T22:29:21.803Z,71.82
2022-11-20T22:31:52.058Z,71.50
2022-11-20T22:34:20.281Z,70.92
2022-11-20T22:36:48.190Z,71.34
2022-11-20T22:39:16.082Z,70.59
2022-11-20T22:41:45.403Z,71.88
2022-11-20T22:44:15.262Z,72.02
2022-11-20T22:46:43.125Z,71.63
2022-11-20T22:49:10.981Z,71.27
2022-11-20T22:51:40.961Z,71.28
2022-11-20T22:54:11.476Z,71.47
2022-11-20T22:56:39.647Z,72.11
2022-11-20T22:59:09.191Z,71.76
2022-11-20T23:01:38.374Z,71.36
2022-11-20T23:04:08.082Z,71.01
2022-11-20T23:06:36.027Z,70.78
2022-11-20T23:09:07.417Z,71.31
2022-11-20T23:11:36.048Z,70.62
2022-11-20T23:14:06.107Z,70.64
2022-11-20T23:16:35.730Z,69.94
2022-11-20T23:19:06.951Z,69.56
2022-11-20T23:21:35.500Z,69.03
2022-11-20T23:24:03.549Z,69.17
2022-11-20T23:26:33.528Z,69.46
2022-11-20T23:29:01.825Z,68.57
2022-11-20T23:31:32.349Z,68.12
2022-11-20T23:34:02.262Z,69.28
2022-11-20T23:36:30.317Z,68.94
2022-11-20T23:38:58.327Z,68.37
2022-11-20T23:41:26.396Z,68.36
2022-11-20T23:43:54.525Z,68.06
2022-11-20T23:46:22.533Z,68.17
2022-11-20T23:48:50.465Z,68.36
2022-11-20T23:51:19.736Z,68.62
2022-11-20T23:53:47.690Z,68.71
2022-11-20T23:56:15.651Z,68.36
2022-11-20T23:58:44.272Z,68.54
